createdAt,value
2022-11-04T00:02:05.800Z,4.30
2022-11-04T00:04:33.927Z,4.57
2022-11-04T00:07:23.722Z,4.35
2022-11-04T00:09:51.654Z,4.63
2022-11-04T00:12:27.820Z,4.50
2022-11-04T00:15:15.840Z,4.35
2022-11-04T00:17:42.996Z,3.97
2022-11-04T00:20:29.365Z,4.30
2022-11-04T00:23:16.467Z,4.63
2022-11-04T00:26:01.679Z,4.13
2022-11-04T00:28:44.549Z,4.05
2022-11-04T00:31:30.265Z,3.78
2022-11-04T00:33:59.817Z,4.20
2022-11-04T00:36:27.968Z,4.13
2022-11-04T00:38:57.344Z,4.93
2022-11-04T00:41:28.894Z,6.28
2022-11-04T00:43:58.103Z,7.43
2022-11-04T00:46:26.969Z,7.32
2022-11-04T00:48:55.153Z,6.28
2022-11-04T00:51:23.277Z,6.40
2022-11-04T00:53:51.752Z,5.53
2022-11-04T00:56:21.390Z,4.85
2022-11-04T00:58:50.331Z,3.58
2022-11-04T01:01:19.951Z,3.25
2022-11-04T01:03:49.852Z,2.85
2022-11-04T01:06:17.951Z,2.00
2022-11-04T01:08:46.193Z,1.60
2022-11-04T01:11:14.863Z,1.35
2022-11-04T01:13:44.277Z,1.75
2022-11-04T01:16:13.761Z,1.48
2022-11-04T01:18:42.125Z,0.95
2022-11-04T01:21:13.129Z,1.02
2022-11-04T01:23:43.076Z,1.10
2022-11-04T01:26:14.344Z,0.85
2022-11-04T01:28:43.971Z,1.00
2022-11-04T01:31:14.273Z,1.02
2022-11-04T01:33:42.223Z,1.27
2022-11-04T01:36:12.286Z,1.00
2022-11-04T01:38:40.840Z,0.98
2022-11-04T01:41:12.912Z,0.80
2022-11-04T01:43:47.432Z,1.42
2022-11-04T01:46:24.252Z,1.15
2022-11-04T01:48:53.514Z,1.10
2022-11-04T01:51:23.209Z,1.00
2022-11-04T01:53:56.197Z,1.50
2022-11-04T01:56:27.148Z,1.38
2022-11-04T01:59:03.672Z,1.70
2022-11-04T02:01:31.770Z,1.48
2022-11-04T02:04:22.132Z,1.55
2022-11-04T02:06:52.046Z,1.70
2022-11-04T02:09:22.195Z,1.98
2022-11-04T02:12:07.388Z,1.90
2022-11-04T02:14:37.677Z,2.38
2022-11-04T02:17:20.293Z,2.25
2022-11-04T02:20:01.421Z,2.60
2022-11-04T02:23:12.111Z,2.60
2022-11-04T02:26:08.431Z,3.30
2022-11-04T02:29:05.642Z,2.65
2022-11-04T02:31:41.870Z,3.03
2022-11-04T02:34:16.863Z,3.67
2022-11-04T02:36:49.267Z,3.67
2022-11-04T02:39:29.824Z,4.22
2022-11-04T02:42:02.106Z,4.13
2022-11-04T02:44:38.528Z,5.28
2022-11-04T02:47:09.517Z,5.03
2022-11-04T02:49:42.089Z,5.50
2022-11-04T02:52:13.830Z,4.78
2022-11-04T02:54:48.535Z,4.57
2022-11-04T02:57:20.740Z,4.50
2022-11-04T02:59:55.143Z,5.03
2022-11-04T03:02:29.008Z,5.70
2022-11-04T03:04:59.278Z,5.97
2022-11-04T03:07:30.659Z,6.80
2022-11-04T03:10:03.882Z,6.80
2022-11-04T03:12:38.514Z,8.30
2022-11-04T03:15:12.234Z,9.88
2022-11-04T03:17:48.110Z,11.25
2022-11-04T03:20:20.641Z,10.45
2022-11-04T03:22:48.675Z,10.45
2022-11-04T03:25:17.481Z,11.48
2022-11-04T03:27:50.809Z,12.00
2022-11-04T03:30:21.778Z,11.80
2022-11-04T03:32:59.114Z,13.82
2022-11-04T03:35:28.101Z,13.10
2022-11-04T03:37:56.365Z,14.43
2022-11-04T03:40:24.671Z,14.27
2022-11-04T03:42:57.201Z,14.48
2022-11-04T03:45:27.638Z,14.35
2022-11-04T03:47:57.737Z,14.60
2022-11-04T03:50:29.409Z,15.55
2022-11-04T03:52:59.150Z,15.63
2022-11-04T03:55:38.628Z,16.25
2022-11-04T03:58:12.550Z,17.55
2022-11-04T04:00:49.627Z,18.50
2022-11-04T04:03:22.164Z,18.42
2022-11-04T04:05:55.035Z,18.77
2022-11-04T04:08:32.104Z,20.08
2022-11-04T04:11:08.261Z,19.33
2022-11-04T04:13:43.107Z,20.20
2022-11-04T04:16:20.033Z,19.40
2022-11-04T04:18:55.800Z,18.90
2022-11-04T04:21:30.904Z,20.15
2022-11-04T04:24:19.311Z,21.10
2022-11-04T04:27:07.340Z,18.70
2022-11-04T04:29:37.683Z,17.88
2022-11-04T04:32:08.463Z,19.48
2022-11-04T04:34:36.955Z,18.40
2022-11-04T04:37:09.099Z,18.38
2022-11-04T04:39:58.866Z,15.52
2022-11-04T04:42:44.755Z,14.95
2022-11-04T04:45:22.276Z,13.93
2022-11-04T04:47:52.981Z,12.68
2022-11-04T04:50:22.722Z,12.07
2022-11-04T04:52:54.367Z,12.15
2022-11-04T04:55:22.409Z,11.98
2022-11-04T04:57:50.343Z,11.52
2022-11-04T05:00:21.369Z,10.75
2022-11-04T05:02:51.429Z,11.73
2022-11-04T05:05:19.987Z,10.95
2022-11-04T05:07:48.037Z,10.95
2022-11-04T05:10:17.731Z,10.75
2022-11-04T05:13:03.790Z,10.13
2022-11-04T05:15:32.730Z,10.02
2022-11-04T05:18:03.529Z,9.95
2022-11-04T05:20:34.433Z,8.80
2022-11-04T05:23:02.796Z,8.23
2022-11-04T05:25:31.182Z,8.30
2022-11-04T05:28:01.116Z,8.30
2022-11-04T05:30:29.014Z,7.07
2022-11-04T05:33:00.037Z,7.68
2022-11-04T05:35:33.271Z,6.85
2022-11-04T05:38:01.348Z,7.47
2022-11-04T05:40:29.372Z,6.72
2022-11-04T05:42:59.360Z,6.82
2022-11-04T05:45:27.367Z,6.65
2022-11-04T05:47:59.876Z,7.85
2022-11-04T05:50:28.449Z,7.80
2022-11-04T05:52:59.128Z,7.78
2022-11-04T05:55:27.204Z,8.00
2022-11-04T05:57:55.421Z,8.45
2022-11-04T06:00:23.559Z,7.90
2022-11-04T06:02:51.763Z,8.43
2022-11-04T06:05:19.765Z,9.38
2022-11-04T06:07:47.790Z,7.82
2022-11-04T06:10:17.543Z,7.47
2022-11-04T06:12:45.518Z,6.85
2022-11-04T06:15:13.435Z,7.25
2022-11-04T06:17:41.366Z,7.57
2022-11-04T06:20:10.857Z,7.65
2022-11-04T06:22:39.020Z,6.97
2022-11-04T06:25:07.322Z,7.93
2022-11-04T06:27:36.587Z,6.60
2022-11-04T06:30:05.320Z,6.70
2022-11-04T06:32:33.171Z,5.63
2022-11-04T06:35:01.223Z,6.13
2022-11-04T06:37:29.768Z,6.00
2022-11-04T06:39:57.661Z,5.90
2022-11-04T06:42:26.892Z,5.43
2022-11-04T06:44:56.152Z,4.90
2022-11-04T06:47:25.087Z,5.15
2022-11-04T06:49:53.222Z,5.35
2022-11-04T06:52:21.091Z,5.05
2022-11-04T06:54:49.006Z,4.97
2022-11-04T06:57:16.955Z,4.57
2022-11-04T06:59:44.947Z,4.80
2022-11-04T07:02:14.348Z,4.60
2022-11-04T07:04:45.751Z,5.18
2022-11-04T07:07:14.367Z,4.78
2022-11-04T07:09:42.459Z,4.45
2022-11-04T07:12:10.391Z,5.40
2022-11-04T07:14:38.842Z,4.65
2022-11-04T07:17:07.878Z,4.55
2022-11-04T07:19:38.748Z,4.63
2022-11-04T07:22:10.365Z,4.57
2022-11-04T07:24:39.619Z,4.35
2022-11-04T07:27:12.274Z,4.70
2022-11-04T07:29:42.185Z,4.10
2022-11-04T07:32:11.827Z,5.07
2022-11-04T07:34:50.984Z,5.35
2022-11-04T07:37:21.698Z,4.85
2022-11-04T07:39:59.256Z,4.38
2022-11-04T07:42:27.175Z,4.45
2022-11-04T07:44:55.049Z,4.47
2022-11-04T07:47:23.148Z,4.20
2022-11-04T07:49:52.782Z,5.07
2022-11-04T07:52:20.692Z,5.22
2022-11-04T07:54:48.563Z,4.10
2022-11-04T07:57:16.452Z,4.80
2022-11-04T07:59:44.313Z,4.95
2022-11-04T08:02:13.448Z,5.00
2022-11-04T08:04:41.482Z,5.00
2022-11-04T08:07:11.014Z,5.00
2022-11-04T08:09:39.253Z,4.93
2022-11-04T08:12:07.694Z,5.20
2022-11-04T08:14:35.614Z,4.80
2022-11-04T08:17:03.837Z,5.05
2022-11-04T08:19:31.818Z,4.57
2022-11-04T08:21:59.829Z,4.40
2022-11-04T08:24:29.903Z,4.38
2022-11-04T08:26:58.144Z,4.75
2022-11-04T08:29:26.151Z,4.70
2022-11-04T08:31:54.449Z,4.57
2022-11-04T08:34:22.305Z,4.80
2022-11-04T08:36:50.206Z,4.55
2022-11-04T08:39:18.232Z,5.05
2022-11-04T08:41:48.515Z,4.63
2022-11-04T08:44:16.779Z,5.28
2022-11-04T08:46:46.209Z,5.07
2022-11-04T08:49:19.594Z,4.72
2022-11-04T08:51:56.423Z,4.63
2022-11-04T08:54:24.474Z,5.18
2022-11-04T08:56:54.536Z,4.47
2022-11-04T08:59:22.993Z,5.03
2022-11-04T09:01:50.920Z,4.82
2022-11-04T09:04:19.698Z,4.95
2022-11-04T09:06:48.669Z,5.05
2022-11-04T09:09:18.088Z,5.10
2022-11-04T09:11:46.933Z,6.10
2022-11-04T09:14:17.892Z,5.95
2022-11-04T09:16:46.011Z,5.88
2022-11-04T09:19:13.863Z,6.22
2022-11-04T09:21:41.837Z,6.45
2022-11-04T09:24:11.608Z,6.47
2022-11-04T09:26:39.904Z,6.90
2022-11-04T09:29:09.765Z,6.50
2022-11-04T09:31:39.940Z,7.30
2022-11-04T09:34:07.800Z,6.57
2022-11-04T09:36:35.676Z,6.75
2022-11-04T09:39:03.626Z,7.85
2022-11-04T09:41:43.190Z,7.50
2022-11-04T09:44:23.099Z,7.03
2022-11-04T09:46:55.957Z,6.28
2022-11-04T09:49:26.180Z,6.55
2022-11-04T09:51:56.548Z,7.70
2022-11-04T09:54:26.507Z,7.97
2022-11-04T09:56:56.514Z,7.38
2022-11-04T09:59:28.310Z,7.30
2022-11-04T10:02:27.224Z,7.85
2022-11-04T10:05:04.815Z,7.50
2022-11-04T10:07:59.895Z,7.80
2022-11-04T10:10:35.495Z,8.80
2022-11-04T10:13:16.602Z,10.60
2022-11-04T10:16:25.606Z,12.38
2022-11-04T10:19:07.945Z,12.57
2022-11-04T10:21:46.231Z,13.73
2022-11-04T10:24:20.584Z,11.52
2022-11-04T10:26:59.034Z,10.82
2022-11-04T10:29:32.119Z,11.50
2022-11-04T10:32:03.045Z,9.32
2022-11-04T10:34:38.288Z,10.50
2022-11-04T10:37:10.613Z,10.57
2022-11-04T10:39:44.264Z,11.15
2022-11-04T10:42:14.615Z,9.85
2022-11-04T10:44:42.857Z,9.77
2022-11-04T10:47:22.853Z,10.48
2022-11-04T10:50:27.835Z,11.73
2022-11-04T10:52:48.365Z,10.20
2022-11-04T10:55:30.046Z,9.75
2022-11-04T10:57:59.438Z,9.75
2022-11-04T11:00:38.294Z,9.15
2022-11-04T11:03:25.021Z,9.98
2022-11-04T11:05:55.884Z,9.20
2022-11-04T11:08:32.643Z,9.55
2022-11-04T11:11:00.922Z,9.80
2022-11-04T11:13:36.710Z,9.63
2022-11-04T11:16:11.822Z,10.00
2022-11-04T11:18:41.707Z,9.43
2022-11-04T11:21:13.576Z,9.15
2022-11-04T11:23:43.843Z,9.00
2022-11-04T11:26:15.376Z,8.50
2022-11-04T11:28:53.123Z,8.25
2022-11-04T11:31:26.896Z,8.40
2022-11-04T11:33:57.996Z,9.25
2022-11-04T11:36:29.505Z,9.27
2022-11-04T11:39:05.957Z,9.43
2022-11-04T11:41:41.007Z,8.93
2022-11-04T11:44:25.493Z,9.48
2022-11-04T11:46:56.183Z,9.77
2022-11-04T11:49:28.965Z,9.82
2022-11-04T11:52:19.610Z,10.23
2022-11-04T11:54:49.910Z,11.23
2022-11-04T11:57:33.039Z,11.27
2022-11-04T12:03:02.598Z,12.38
2022-11-04T12:11:42.737Z,12.75
2022-11-04T12:14:18.174Z,12.20
2022-11-04T12:16:57.501Z,12.00
2022-11-04T12:19:41.542Z,11.45
2022-11-04T12:22:21.123Z,11.23
2022-11-04T12:24:59.934Z,11.50
2022-11-04T12:27:35.483Z,11.35
2022-11-04T12:30:08.718Z,11.68
2022-11-04T12:32:45.310Z,10.77
2022-11-04T12:35:30.538Z,10.65
2022-11-04T12:38:20.674Z,10.95
2022-11-04T12:43:57.628Z,10.88
2022-11-04T12:46:33.694Z,11.45
2022-11-04T12:49:32.340Z,11.38
2022-11-04T12:52:08.026Z,11.60
2022-11-04T12:54:51.893Z,11.02
2022-11-04T12:57:28.701Z,11.07
2022-11-04T13:00:10.085Z,11.30
2022-11-04T13:02:43.343Z,11.23
2022-11-04T13:05:30.241Z,11.63
2022-11-04T13:08:08.592Z,11.40
2022-11-04T13:10:43.638Z,11.35
2022-11-04T13:13:16.546Z,11.25
2022-11-04T13:15:48.322Z,10.98
2022-11-04T13:18:20.458Z,11.05
2022-11-04T13:20:56.862Z,11.30
2022-11-04T13:23:33.857Z,11.18
2022-11-04T13:26:03.662Z,11.43
2022-11-04T13:28:33.553Z,11.57
2022-11-04T13:31:07.065Z,10.30
2022-11-04T13:33:48.803Z,11.20
2022-11-04T13:36:28.588Z,11.25
2022-11-04T13:39:01.927Z,9.95
2022-11-04T13:41:51.113Z,10.55
2022-11-04T13:44:25.970Z,10.15
2022-11-04T13:46:58.521Z,9.93
2022-11-04T13:49:32.561Z,9.80
2022-11-04T13:52:08.209Z,11.73
2022-11-04T13:54:41.779Z,9.93
2022-11-04T13:57:13.648Z,11.85
2022-11-04T13:59:46.461Z,10.60
2022-11-04T14:02:43.583Z,9.60
2022-11-04T14:05:56.520Z,10.25
2022-11-04T14:08:24.722Z,10.23
2022-11-04T14:11:12.012Z,9.27
2022-11-04T14:14:10.995Z,9.63
2022-11-04T14:16:47.461Z,5.93
2022-11-04T14:19:57.945Z,2.25
2022-11-04T14:22:36.102Z,1.42
2022-11-04T14:25:21.397Z,1.33
2022-11-04T14:27:50.935Z,1.42
2022-11-04T14:30:36.251Z,1.10
2022-11-04T14:33:09.679Z,1.00
2022-11-04T14:35:38.154Z,1.60
2022-11-04T14:38:21.387Z,1.63
2022-11-04T14:40:53.954Z,1.40
2022-11-04T14:43:36.081Z,1.40
2022-11-04T14:46:04.429Z,1.80
2022-11-04T14:48:34.255Z,2.13
2022-11-04T14:51:05.233Z,1.58
2022-11-04T14:53:35.043Z,1.90
2022-11-04T14:56:08.238Z,24.90
2022-11-04T14:58:37.666Z,5.13
2022-11-04T15:01:07.784Z,7.22
2022-11-04T15:04:10.652Z,5.45
2022-11-04T15:06:40.593Z,6.35
2022-11-04T15:09:23.722Z,10.85
2022-11-04T15:12:10.752Z,5.47
2022-11-04T15:14:39.108Z,4.70
2022-11-04T15:17:07.470Z,3.22
2022-11-04T15:19:37.653Z,3.03
2022-11-04T15:22:07.316Z,3.50
2022-11-04T15:24:36.690Z,2.80
2022-11-04T15:27:07.408Z,3.10
2022-11-04T15:29:35.309Z,2.63
2022-11-04T15:32:05.926Z,2.28
2022-11-04T15:34:37.250Z,2.28
2022-11-04T15:37:07.731Z,2.92
2022-11-04T15:39:38.833Z,3.60
2022-11-04T15:42:27.495Z,5.40
2022-11-04T15:44:57.209Z,5.13
2022-11-04T15:47:27.226Z,3.63
2022-11-04T15:50:05.245Z,3.33
2022-11-04T15:52:33.587Z,2.83
2022-11-04T15:55:03.404Z,3.15
2022-11-04T15:57:34.504Z,3.75
2022-11-04T16:00:24.485Z,3.72
2022-11-04T16:02:56.367Z,2.53
2022-11-04T16:05:31.433Z,3.10
2022-11-04T16:08:20.136Z,2.05
2022-11-04T16:10:49.351Z,2.47
2022-11-04T16:13:25.822Z,2.58
2022-11-04T16:16:09.276Z,3.28
2022-11-04T16:18:40.089Z,4.23
2022-11-04T16:21:14.911Z,4.20
2022-11-04T16:23:46.816Z,3.05
2022-11-04T16:26:14.921Z,2.58
2022-11-04T16:28:44.129Z,4.68
2022-11-04T16:31:27.725Z,4.38
2022-11-04T16:33:56.469Z,4.30
2022-11-04T16:36:29.759Z,4.35
2022-11-04T16:39:04.855Z,4.75
2022-11-04T16:41:37.547Z,5.32
2022-11-04T16:44:06.406Z,5.63
2022-11-04T16:46:35.754Z,7.90
2022-11-04T16:49:03.655Z,6.28
2022-11-04T16:51:35.297Z,5.70
2022-11-04T16:54:04.758Z,4.35
2022-11-04T16:56:35.744Z,4.20
2022-11-04T16:59:03.658Z,3.78
2022-11-04T17:01:33.874Z,3.38
2022-11-04T17:04:04.357Z,4.80
2022-11-04T17:06:34.580Z,4.15
2022-11-04T17:09:03.095Z,4.18
2022-11-04T17:11:31.514Z,4.78
2022-11-04T17:13:59.684Z,4.28
2022-11-04T17:16:27.735Z,4.22
2022-11-04T17:18:55.954Z,3.95
2022-11-04T17:21:26.328Z,5.78
2022-11-04T17:23:57.090Z,7.53
2022-11-04T17:26:24.979Z,5.05
2022-11-04T17:28:53.072Z,5.90
2022-11-04T17:31:21.793Z,4.38
2022-11-04T17:33:50.399Z,4.28
2022-11-04T17:36:20.151Z,3.85
2022-11-04T17:38:49.629Z,5.40
2022-11-04T17:41:36.712Z,5.85
2022-11-04T17:44:05.099Z,5.47
2022-11-04T17:46:35.112Z,5.70
2022-11-04T17:49:08.929Z,5.90
2022-11-04T17:51:37.464Z,5.30
2022-11-04T17:54:05.989Z,5.40
2022-11-04T17:56:35.666Z,4.93
2022-11-04T17:59:05.404Z,4.18
2022-11-04T18:01:35.901Z,4.10
2022-11-04T18:04:04.557Z,4.43
2022-11-04T18:06:34.526Z,4.22
2022-11-04T18:09:21.183Z,4.18
2022-11-04T18:12:14.109Z,4.22
2022-11-04T18:15:04.927Z,3.92
2022-11-04T18:17:32.890Z,3.95
2022-11-04T18:20:18.487Z,9.73
2022-11-04T18:26:41.914Z,5.38
2022-11-04T18:32:08.752Z,4.03
2022-11-04T18:34:47.387Z,3.47
2022-11-04T18:37:16.588Z,4.10
2022-11-04T18:39:45.221Z,3.58
2022-11-04T18:42:14.076Z,3.58
2022-11-04T18:44:52.001Z,3.63
2022-11-04T18:47:20.407Z,4.15
2022-11-04T18:52:35.017Z,4.35
2022-11-04T18:55:06.275Z,3.92
2022-11-04T18:57:34.261Z,4.45
2022-11-04T19:00:10.517Z,4.40
2022-11-04T19:02:41.127Z,4.20
2022-11-04T19:05:14.249Z,4.55
2022-11-04T19:07:44.374Z,4.63
2022-11-04T19:10:15.654Z,5.80
2022-11-04T19:13:02.155Z,6.15
2022-11-04T19:15:32.174Z,9.27
2022-11-04T19:18:00.639Z,9.75
2022-11-04T19:20:29.116Z,8.57
2022-11-04T19:22:59.291Z,6.05
2022-11-04T19:25:27.760Z,9.07
2022-11-04T19:28:26.476Z,9.95
2022-11-04T19:30:57.623Z,8.02
2022-11-04T19:33:25.601Z,8.18
2022-11-04T19:35:54.691Z,8.98
2022-11-04T19:38:24.696Z,5.65
2022-11-04T19:40:55.376Z,5.70
2022-11-04T19:43:24.319Z,5.15
2022-11-04T19:46:01.386Z,5.97
2022-11-04T19:48:33.396Z,6.05
2022-11-04T19:51:01.378Z,5.65
2022-11-04T19:53:30.136Z,5.90
2022-11-04T19:55:58.669Z,7.70
2022-11-04T19:58:29.194Z,7.38
2022-11-04T20:01:08.266Z,7.13
2022-11-04T20:03:36.736Z,5.05
2022-11-04T20:06:05.318Z,5.35
2022-11-04T20:08:35.556Z,5.43
2022-11-04T20:11:04.030Z,5.93
2022-11-04T20:13:49.413Z,6.10
2022-11-04T20:16:21.952Z,6.15
2022-11-04T20:18:56.686Z,7.95
2022-11-04T20:21:26.705Z,7.97
2022-11-04T20:23:56.685Z,7.30
2022-11-04T20:26:25.907Z,6.38
2022-11-04T20:28:56.192Z,6.65
2022-11-04T20:31:27.667Z,6.22
2022-11-04T20:33:57.225Z,5.80
2022-11-04T20:36:27.625Z,7.13
2022-11-04T20:38:59.464Z,6.93
2022-11-04T20:41:27.743Z,7.00
2022-11-04T20:43:56.533Z,6.82
2022-11-04T20:46:27.776Z,5.53
2022-11-04T20:48:58.307Z,5.25
2022-11-04T20:51:28.844Z,5.30
2022-11-04T20:54:00.370Z,5.15
2022-11-04T20:56:32.274Z,4.72
2022-11-04T20:59:01.515Z,4.15
2022-11-04T21:01:35.210Z,4.55
2022-11-04T21:04:05.897Z,4.63
2022-11-04T21:06:36.892Z,3.83
2022-11-04T21:09:06.214Z,4.78
2022-11-04T21:11:35.263Z,5.60
2022-11-04T21:14:03.910Z,5.38
2022-11-04T21:16:33.577Z,6.00
2022-11-04T21:19:01.743Z,6.32
2022-11-04T21:21:30.663Z,6.85
2022-11-04T21:24:01.533Z,6.07
2022-11-04T21:26:32.128Z,6.90
2022-11-04T21:29:01.873Z,6.95
2022-11-04T21:31:34.392Z,7.60
2022-11-04T21:34:03.660Z,8.82
2022-11-04T21:36:32.319Z,8.80
2022-11-04T21:39:00.603Z,6.97
2022-11-04T21:41:34.430Z,7.25
2022-11-04T21:44:03.718Z,7.25
2022-11-04T21:46:35.614Z,7.63
2022-11-04T21:49:03.843Z,7.38
2022-11-04T21:51:34.364Z,7.07
2022-11-04T21:54:07.479Z,8.20
2022-11-04T21:56:38.790Z,8.88
2022-11-04T21:59:10.861Z,9.15
2022-11-04T22:04:10.836Z,8.35
2022-11-04T22:06:39.569Z,9.73
2022-11-04T22:09:08.708Z,9.27
2022-11-04T22:11:39.437Z,11.63
2022-11-04T22:14:12.104Z,12.60
2022-11-04T22:16:42.356Z,12.88
2022-11-04T22:19:13.616Z,14.77
2022-11-04T22:21:43.471Z,14.57
2022-11-04T22:24:12.784Z,14.57
2022-11-04T22:26:48.551Z,13.30
2022-11-04T22:29:16.967Z,13.48
2022-11-04T22:31:51.826Z,12.00
2022-11-04T22:34:21.805Z,12.13
2022-11-04T22:36:49.798Z,12.05
2022-11-04T22:39:17.680Z,11.80
2022-11-04T22:41:47.233Z,13.25
2022-11-04T22:44:15.448Z,13.25
2022-11-04T22:46:44.127Z,12.30
2022-11-04T22:49:14.519Z,11.38
2022-11-04T22:51:43.639Z,10.07
2022-11-04T22:54:12.314Z,10.30
2022-11-04T22:56:40.583Z,10.82
2022-11-04T22:59:12.309Z,9.60
2022-11-04T23:01:40.874Z,9.90
2022-11-04T23:04:12.053Z,10.27
2022-11-04T23:06:42.017Z,11.13
2022-11-04T23:09:10.953Z,12.00
2022-11-04T23:11:56.749Z,12.32
2022-11-04T23:14:43.750Z,13.85
2022-11-04T23:17:33.769Z,13.60
2022-11-04T23:20:03.010Z,12.82
2022-11-04T23:22:49.816Z,14.25
2022-11-04T23:25:18.248Z,13.63
2022-11-04T23:28:06.814Z,12.55
2022-11-04T23:30:38.587Z,12.90
2022-11-04T23:33:09.614Z,12.05
2022-11-04T23:35:59.418Z,12.48
2022-11-04T23:38:30.004Z,10.90
2022-11-04T23:41:18.428Z,10.27
2022-11-04T23:43:48.050Z,10.63
2022-11-04T23:46:41.148Z,5.97
2022-11-04T23:49:30.242Z,4.88
2022-11-04T23:52:15.930Z,4.75
2022-11-04T23:55:05.476Z,3.90
2022-11-04T23:57:53.149Z,2.67
